Time;durP1;ratioP1;P1;durP2;ratioP2;P2;SDS_P1;SDS_P2;PMS_P1;PMS_P2;Temp;Humidity;BMP_temperature;BMP_pressure;BME280_temperature;BME280_humidity;BME280_pressure;Samples;Min_cycle;Max_cycle;Signal;HPM_P1;HPM_P2
2022/07/26 00:01:40;;;;;;;27.95;22.23;;;14.10;99.90;;;;;;5042514;28;20665;-79
2022/07/26 00:04:07;;;;;;;21.38;18.50;;;14.00;99.90;;;;;;5043194;28;20017;-83
2022/07/26 00:06:35;;;;;;;22.73;18.70;;;14.10;99.90;;;;;;5056666;28;20024;-79
2022/07/26 00:09:02;;;;;;;23.00;18.35;;;14.10;99.90;;;;;;5059292;28;20215;-84
2022/07/26 00:11:32;;;;;;;17.80;15.07;;;14.10;99.90;;;;;;5047551;28;20028;-83
2022/07/26 00:14:05;;;;;;;21.67;16.92;;;14.20;99.90;;;;;;5268541;22;20794;-80
2022/07/26 00:16:33;;;;;;;22.77;15.98;;;14.20;99.90;;;;;;5019098;28;20098;-82
2022/07/26 00:19:01;;;;;;;16.00;14.38;;;14.30;99.90;;;;;;5021373;28;20033;-83
2022/07/26 00:21:29;;;;;;;18.80;15.60;;;14.40;99.90;;;;;;5019656;28;20077;-79
2022/07/26 00:23:58;;;;;;;14.93;12.52;;;14.40;99.90;;;;;;5014023;28;20029;-80
2022/07/26 00:26:25;;;;;;;13.40;11.55;;;14.50;99.90;;;;;;5000252;28;20029;-76
2022/07/26 00:28:52;;;;;;;14.45;11.98;;;14.50;99.90;;;;;;4999902;28;20494;-80
2022/07/26 00:31:20;;;;;;;14.27;10.85;;;14.60;99.90;;;;;;5001660;28;20364;-78
2022/07/26 00:33:47;;;;;;;14.30;11.10;;;14.60;99.90;;;;;;4999338;28;20022;-83
2022/07/26 00:36:16;;;;;;;13.82;10.70;;;14.70;99.90;;;;;;5002647;28;20038;-82
2022/07/26 00:38:43;;;;;;;17.67;12.13;;;14.80;99.90;;;;;;5002031;28;20534;-82
2022/07/26 00:41:11;;;;;;;14.70;11.65;;;14.80;99.90;;;;;;5017755;28;20076;-81
2022/07/26 00:43:52;;;;;;;12.65;11.02;;;14.80;99.90;;;;;;4996403;28;20030;-82
2022/07/26 00:46:19;;;;;;;12.82;9.70;;;14.90;99.90;;;;;;5000976;28;20022;-84
2022/07/26 00:48:46;;;;;;;12.57;8.57;;;15.00;99.90;;;;;;5000315;28;20026;-82
2022/07/26 00:51:14;;;;;;;12.10;8.93;;;15.00;99.90;;;;;;5002817;28;20109;-81
2022/07/26 00:53:44;;;;;;;10.98;8.93;;;15.10;99.90;;;;;;4998137;28;20505;-84
2022/07/26 00:56:13;;;;;;;10.25;7.63;;;15.20;99.90;;;;;;5001494;28;20129;-83
2022/07/26 00:58:42;;;;;;;8.85;6.82;;;15.30;99.90;;;;;;4999967;28;20022;-81
2022/07/26 01:01:10;;;;;;;7.20;5.70;;;15.50;99.90;;;;;;5000299;28;20104;-83
2022/07/26 01:03:37;;;;;;;5.70;4.13;;;15.60;99.90;;;;;;4997371;28;20533;-80
2022/07/26 01:06:05;;;;;;;5.05;3.83;;;15.70;99.90;;;;;;5000228;28;20084;-84
2022/07/26 01:08:33;;;;;;;4.95;3.28;;;15.80;99.90;;;;;;5001132;28;20025;-82
2022/07/26 01:11:00;;;;;;;3.72;3.22;;;16.00;99.90;;;;;;5000110;28;20541;-82
2022/07/26 01:13:33;;;;;;;6.70;3.92;;;16.10;99.90;;;;;;5001531;28;20021;-81
2022/07/26 01:16:00;;;;;;;4.82;3.55;;;16.30;99.90;;;;;;5001579;28;20050;-80
2022/07/26 01:18:27;;;;;;;5.30;2.92;;;16.40;99.90;;;;;;4998512;28;20619;-83
2022/07/26 01:20:57;;;;;;;5.70;3.30;;;16.60;99.90;;;;;;4999318;28;20018;-84
2022/07/26 01:23:24;;;;;;;4.45;2.80;;;16.70;99.90;;;;;;5000015;28;20093;-77
2022/07/26 01:25:51;;;;;;;3.33;2.03;;;16.90;99.90;;;;;;4997248;28;20037;-79
2022/07/26 01:28:19;;;;;;;3.83;2.40;;;16.90;99.90;;;;;;4994713;28;20075;-77
2022/07/26 01:30:47;;;;;;;2.83;2.00;;;17.00;99.90;;;;;;4991931;28;20029;-74
2022/07/26 01:33:16;;;;;;;6.07;3.00;;;17.20;99.90;;;;;;4995424;28;20018;-85
2022/07/26 01:35:43;;;;;;;4.68;2.20;;;17.20;99.90;;;;;;4997589;28;20042;-86
2022/07/26 01:38:10;;;;;;;3.35;2.20;;;17.20;99.90;;;;;;5000094;28;20660;-83
2022/07/26 01:40:38;;;;;;;3.22;2.20;;;17.40;99.90;;;;;;4991557;28;20022;-81
2022/07/26 01:43:05;;;;;;;5.03;2.25;;;17.50;99.90;;;;;;4997246;28;20025;-82
2022/07/26 01:45:33;;;;;;;3.50;2.30;;;17.60;99.90;;;;;;4999642;28;20048;-83
2022/07/26 01:48:00;;;;;;;3.58;2.40;;;17.70;99.90;;;;;;4998974;28;20030;-84
2022/07/26 01:50:27;;;;;;;5.13;2.75;;;17.80;99.90;;;;;;4999203;28;20022;-79
2022/07/26 01:52:56;;;;;;;4.00;2.33;;;17.90;99.90;;;;;;4999761;28;20471;-79
2022/07/26 01:55:23;;;;;;;4.63;2.65;;;18.10;99.90;;;;;;4999700;28;20041;-78
2022/07/26 01:57:51;;;;;;;3.50;2.42;;;18.10;99.90;;;;;;4999954;28;20026;-77
2022/07/26 02:00:18;;;;;;;2.90;1.98;;;18.30;99.90;;;;;;4997254;28;20022;-77
2022/07/26 02:02:48;;;;;;;3.55;1.90;;;18.40;99.90;;;;;;4999495;28;20106;-82
2022/07/26 02:05:15;;;;;;;2.97;1.75;;;18.60;99.90;;;;;;4998902;28;20046;-87
2022/07/26 02:07:43;;;;;;;3.55;1.50;;;18.70;99.90;;;;;;4998723;28;20026;-75
2022/07/26 02:10:12;;;;;;;3.28;1.83;;;18.90;99.90;;;;;;4998633;28;20049;-81
2022/07/26 02:12:40;;;;;;;1.58;1.20;;;19.20;99.90;;;;;;4999188;28;20379;-77
2022/07/26 02:15:10;;;;;;;0.90;0.60;;;19.30;99.90;;;;;;4998834;28;20734;-77
2022/07/26 02:17:38;;;;;;;1.50;1.00;;;19.30;99.30;;;;;;4998088;28;20148;-78
2022/07/26 02:20:06;;;;;;;1.42;0.98;;;19.30;98.70;;;;;;4997522;28;20053;-82
2022/07/26 02:22:34;;;;;;;1.30;0.50;;;19.20;98.80;;;;;;4996747;28;20037;-77
2022/07/26 02:25:01;;;;;;;1.10;0.70;;;19.00;98.30;;;;;;5000336;28;20029;-77
2022/07/26 02:27:29;;;;;;;0.95;0.70;;;18.90;97.90;;;;;;4998860;28;20033;-77
2022/07/26 02:29:56;;;;;;;2.50;0.70;;;19.00;98.10;;;;;;4999996;28;20563;-81
2022/07/26 02:32:23;;;;;;;0.98;0.77;;;19.00;97.60;;;;;;4999317;28;20112;-81
2022/07/26 02:34:51;;;;;;;1.98;0.70;;;19.20;97.60;;;;;;4998973;28;20633;-81
2022/07/26 02:37:18;;;;;;;0.88;0.45;;;19.40;97.50;;;;;;5003291;28;20041;-81
2022/07/26 02:39:45;;;;;;;0.73;0.50;;;19.60;96.10;;;;;;5002343;28;20022;-81
2022/07/26 02:42:13;;;;;;;1.55;0.73;;;19.80;96.10;;;;;;5003413;28;20018;-81
2022/07/26 02:44:40;;;;;;;1.02;0.50;;;20.00;95.00;;;;;;5002452;28;20026;-88
2022/07/26 02:47:08;;;;;;;0.60;0.50;;;20.20;94.50;;;;;;5003459;28;20034;-86
2022/07/26 02:49:35;;;;;;;1.55;0.60;;;20.40;93.80;;;;;;5002746;28;20040;-85
2022/07/26 02:52:02;;;;;;;1.13;0.50;;;20.60;92.60;;;;;;5002427;28;20133;-81
2022/07/26 02:54:30;;;;;;;0.98;0.50;;;20.90;92.70;;;;;;5002234;28;20604;-81
2022/07/26 02:56:57;;;;;;;0.73;0.40;;;21.20;91.70;;;;;;5000026;28;20034;-87
2022/07/26 02:59:25;;;;;;;0.68;0.40;;;21.30;92.50;;;;;;5001810;28;20026;-85
2022/07/26 03:01:52;;;;;;;2.15;0.40;;;21.40;90.90;;;;;;5002747;28;20021;-86
2022/07/26 03:04:20;;;;;;;0.73;0.50;;;21.50;90.90;;;;;;5001998;28;20251;-85
2022/07/26 03:06:47;;;;;;;1.60;0.50;;;21.70;90.90;;;;;;5001498;28;20014;-84
2022/07/26 03:09:15;;;;;;;2.15;0.77;;;21.80;90.70;;;;;;5002519;28;20033;-85
2022/07/26 03:11:42;;;;;;;2.05;0.60;;;21.70;90.20;;;;;;5000944;28;20379;-80
2022/07/26 03:14:09;;;;;;;2.85;0.75;;;21.30;90.10;;;;;;5001888;28;20360;-86
2022/07/26 03:16:38;;;;;;;1.23;0.50;;;20.80;90.80;;;;;;5000204;28;20026;-86
2022/07/26 03:19:06;;;;;;;0.88;0.50;;;20.30;91.20;;;;;;5002123;28;20494;-80
2022/07/26 03:21:33;;;;;;;0.98;0.50;;;19.90;91.70;;;;;;5001672;28;20030;-84
2022/07/26 03:24:00;;;;;;;1.90;0.70;;;19.60;91.40;;;;;;5001483;28;20453;-85
2022/07/26 03:26:28;;;;;;;1.17;0.68;;;19.40;92.30;;;;;;5001783;28;20026;-82
2022/07/26 03:28:55;;;;;;;0.80;0.60;;;19.30;91.70;;;;;;5016517;28;20113;-86
2022/07/26 03:31:24;;;;;;;1.70;0.60;;;19.40;90.90;;;;;;5001098;28;20034;-84
2022/07/26 03:33:51;;;;;;;1.02;0.60;;;19.30;90.10;;;;;;5000794;28;20022;-79
2022/07/26 03:36:19;;;;;;;0.80;0.47;;;19.30;91.10;;;;;;5001490;28;20092;-83
2022/07/26 03:38:46;;;;;;;1.67;0.55;;;19.30;91.80;;;;;;5000197;28;20470;-80
2022/07/26 03:41:16;;;;;;;3.28;0.50;;;19.30;92.60;;;;;;5000389;28;20113;-85
2022/07/26 03:43:44;;;;;;;0.93;0.50;;;19.30;93.00;;;;;;5001126;28;20038;-82
2022/07/26 03:46:11;;;;;;;3.38;0.75;;;19.60;92.30;;;;;;5001019;28;20022;-82
2022/07/26 03:48:38;;;;;;;1.38;0.60;;;20.20;90.60;;;;;;4999739;28;20026;-84
2022/07/26 03:51:06;;;;;;;0.85;0.45;;;21.30;90.10;;;;;;5000889;28;20022;-84
2022/07/26 03:53:33;;;;;;;1.38;0.50;;;22.30;87.60;;;;;;5000441;28;20379;-81
2022/07/26 03:58:46;;;;;;;0.63;0.47;;;22.80;76.20;;;;;;5000177;28;20521;-85
2022/07/26 04:01:14;;;;;;;0.70;0.40;;;22.30;79.70;;;;;;5015781;28;20040;-85
2022/07/26 04:03:42;;;;;;;1.80;0.40;;;21.80;81.90;;;;;;4999497;28;20386;-86
2022/07/26 04:06:09;;;;;;;1.80;0.60;;;21.30;83.90;;;;;;5001036;28;20418;-84
2022/07/26 04:08:36;;;;;;;1.05;0.40;;;20.70;82.50;;;;;;5001525;28;20025;-83
2022/07/26 04:11:04;;;;;;;1.45;0.50;;;20.10;82.20;;;;;;5001202;28;20018;-87
2022/07/26 04:13:32;;;;;;;2.78;0.47;;;19.70;83.30;;;;;;5001174;28;20018;-85
2022/07/26 04:15:59;;;;;;;1.33;0.50;;;19.30;84.50;;;;;;4999118;28;20128;-84
2022/07/26 04:18:26;;;;;;;1.52;0.65;;;19.10;86.20;;;;;;5000050;28;20030;-86
2022/07/26 04:20:54;;;;;;;1.33;0.50;;;18.90;87.00;;;;;;4998083;28;20141;-81
2022/07/26 04:23:21;;;;;;;1.02;0.60;;;18.80;87.50;;;;;;5009298;28;20115;-84
2022/07/26 04:25:49;;;;;;;1.30;0.60;;;18.60;87.80;;;;;;4998869;28;20027;-83
2022/07/26 04:28:16;;;;;;;1.13;0.45;;;18.40;88.10;;;;;;4998564;28;20028;-85
2022/07/26 04:30:44;;;;;;;2.25;0.50;;;18.40;85.90;;;;;;5000286;28;20025;-86
2022/07/26 04:33:11;;;;;;;1.40;0.50;;;18.10;86.30;;;;;;5000408;28;20037;-79
2022/07/26 04:35:38;;;;;;;1.95;0.50;;;18.00;85.50;;;;;;4998177;28;20127;-80
2022/07/26 04:38:06;;;;;;;2.72;0.47;;;17.80;86.30;;;;;;4999319;28;20453;-79
2022/07/26 04:40:33;;;;;;;1.13;0.50;;;17.70;86.60;;;;;;4999975;28;20038;-83
2022/07/26 04:43:01;;;;;;;1.10;0.50;;;17.60;87.60;;;;;;4996446;28;20030;-79
2022/07/26 04:45:31;;;;;;;1.50;0.50;;;17.50;87.40;;;;;;4997573;28;20022;-85
2022/07/26 04:47:58;;;;;;;1.52;0.50;;;17.40;87.30;;;;;;4988268;28;20018;-81
2022/07/26 04:50:27;;;;;;;0.68;0.40;;;17.20;86.60;;;;;;5000575;28;20061;-85
2022/07/26 04:52:55;;;;;;;2.00;0.52;;;17.00;85.20;;;;;;5007054;28;20061;-84
2022/07/26 04:55:23;;;;;;;0.35;0.35;;;16.90;85.30;;;;;;4994617;28;20542;-83
2022/07/26 04:57:51;;;;;;;1.98;0.50;;;16.80;83.80;;;;;;4989410;28;20493;-85
2022/07/26 05:00:23;;;;;;;0.60;0.50;;;16.70;84.30;;;;;;4996753;28;20672;-81
2022/07/26 05:03:06;;;;;;;0.57;0.40;;;16.60;83.40;;;;;;4997562;28;20030;-87
2022/07/26 05:05:33;;;;;;;1.52;0.30;;;16.50;84.60;;;;;;4994239;28;20026;-85
2022/07/26 05:08:03;;;;;;;2.05;0.55;;;16.40;85.10;;;;;;4993885;28;20030;-85
2022/07/26 05:10:34;;;;;;;0.50;0.50;;;16.40;83.40;;;;;;4994687;28;20827;-77
2022/07/26 05:13:04;;;;;;;0.82;0.40;;;16.30;84.70;;;;;;4989115;28;20097;-84
2022/07/26 05:15:33;;;;;;;0.77;0.60;;;16.20;83.00;;;;;;4990360;28;20078;-85
2022/07/26 05:18:08;;;;;;;1.08;0.50;;;16.20;82.90;;;;;;4988562;28;20143;-83
2022/07/26 05:20:39;;;;;;;0.75;0.57;;;16.20;83.60;;;;;;4995015;28;20034;-82
2022/07/26 05:23:08;;;;;;;0.40;0.40;;;16.10;82.20;;;;;;4987435;28;20386;-83
2022/07/26 05:25:36;;;;;;;1.30;0.60;;;16.10;83.10;;;;;;4987463;28;20038;-82
2022/07/26 05:28:04;;;;;;;0.50;0.50;;;16.20;84.50;;;;;;5005861;22;20053;-84
2022/07/26 05:30:31;;;;;;;0.95;0.60;;;16.20;84.30;;;;;;5014479;28;20740;-84
2022/07/26 05:32:59;;;;;;;0.40;0.40;;;16.10;84.60;;;;;;5016819;28;20056;-84
2022/07/26 05:35:27;;;;;;;1.25;0.40;;;16.20;84.10;;;;;;5008225;28;20435;-84
2022/07/26 05:37:55;;;;;;;1.33;0.52;;;16.20;85.00;;;;;;5008982;28;20409;-82
2022/07/26 05:40:22;;;;;;;0.68;0.50;;;16.40;84.50;;;;;;5007157;28;20113;-84
2022/07/26 05:42:50;;;;;;;1.65;0.50;;;16.70;83.60;;;;;;5007995;28;20017;-84
2022/07/26 05:45:17;;;;;;;1.10;0.50;;;16.70;83.30;;;;;;5007449;28;20018;-82
2022/07/26 05:47:45;;;;;;;1.55;0.50;;;16.80;84.20;;;;;;5009605;28;20053;-82
2022/07/26 05:50:12;;;;;;;0.85;0.40;;;16.80;83.00;;;;;;5005848;28;20022;-84
2022/07/26 05:52:39;;;;;;;0.70;0.50;;;16.90;84.20;;;;;;5006568;28;20044;-84
2022/07/26 05:55:07;;;;;;;2.75;0.50;;;16.90;84.00;;;;;;5005036;28;20903;-84
2022/07/26 05:57:35;;;;;;;0.93;0.57;;;17.00;83.30;;;;;;5009030;28;20041;-83
2022/07/26 06:00:03;;;;;;;1.63;0.60;;;16.90;82.60;;;;;;5008191;28;20033;-84
2022/07/26 06:02:31;;;;;;;1.70;0.52;;;16.80;83.10;;;;;;5011496;28;20029;-84
2022/07/26 06:04:58;;;;;;;1.13;0.50;;;16.70;83.90;;;;;;4991048;28;20144;-81
2022/07/26 06:07:25;;;;;;;1.27;0.73;;;16.60;82.50;;;;;;5004774;28;20423;-85
2022/07/26 06:09:53;;;;;;;1.45;0.80;;;16.40;82.20;;;;;;5011721;28;20565;-85
2022/07/26 06:12:23;;;;;;;2.30;0.47;;;16.50;82.80;;;;;;5013021;28;20018;-86
2022/07/26 06:14:50;;;;;;;0.93;0.40;;;16.70;81.30;;;;;;5014499;28;20021;-84
2022/07/26 06:17:18;;;;;;;1.02;0.40;;;17.00;80.70;;;;;;5010154;28;20112;-81
2022/07/26 06:19:45;;;;;;;1.55;0.50;;;17.40;79.40;;;;;;5013973;28;20041;-84
2022/07/26 06:22:12;;;;;;;0.60;0.40;;;17.60;79.30;;;;;;5013120;28;20010;-81
2022/07/26 06:24:40;;;;;;;1.45;0.40;;;17.70;79.80;;;;;;5012037;28;20029;-81
2022/07/26 06:27:07;;;;;;;2.35;1.20;;;17.30;80.70;;;;;;5011389;28;20033;-85
2022/07/26 06:29:37;;;;;;;12.15;6.63;;;16.80;82.50;;;;;;5013561;28;20258;-85
2022/07/26 06:32:04;;;;;;;2.80;1.85;;;16.50;83.50;;;;;;5011451;28;20056;-80
2022/07/26 06:34:32;;;;;;;1.38;0.70;;;16.30;83.90;;;;;;5010989;28;20036;-84
2022/07/26 06:37:00;;;;;;;2.35;1.80;;;16.00;83.00;;;;;;5012986;28;20025;-76
2022/07/26 06:39:27;;;;;;;4.43;2.67;;;15.70;82.30;;;;;;5010644;28;20044;-81
2022/07/26 06:41:54;;;;;;;10.90;8.10;;;15.50;83.00;;;;;;5021402;28;20009;-84
2022/07/26 06:44:21;;;;;;;4.82;1.98;;;15.30;83.20;;;;;;5019837;28;20421;-83
2022/07/26 06:46:49;;;;;;;4.07;3.00;;;15.10;84.20;;;;;;5013579;28;20052;-85
2022/07/26 06:49:16;;;;;;;1.75;0.90;;;15.00;85.30;;;;;;5011162;28;20010;-83
2022/07/26 06:52:02;;;;;;;;;;;;;;;;;;;;;
2022/07/26 07:00:50;;;;;;;3.40;2.38;;;14.50;86.40;;;;;;4990289;28;20447;-85
2022/07/26 07:03:21;;;;;;;5.38;4.18;;;14.40;85.90;;;;;;4967786;28;20439;-85
2022/07/26 07:05:58;;;;;;;4.00;1.30;;;14.30;86.10;;;;;;4992303;28;20372;-83
2022/07/26 07:08:25;;;;;;;1.85;0.80;;;14.20;86.80;;;;;;4988474;28;20037;-84
2022/07/26 07:10:54;;;;;;;3.00;1.05;;;14.10;88.00;;;;;;4991665;28;20052;-83
2022/07/26 07:13:31;;;;;;;2.22;1.00;;;14.00;88.80;;;;;;4986156;28;20023;-81
2022/07/26 07:16:01;;;;;;;4.70;1.70;;;13.80;89.60;;;;;;4989755;28;20137;-85
2022/07/26 07:18:32;;;;;;;4.93;2.75;;;13.80;89.90;;;;;;4989846;28;20022;-85
2022/07/26 07:20:59;;;;;;;2.03;1.20;;;13.70;89.60;;;;;;4988780;28;20118;-85
2022/07/26 07:23:27;;;;;;;3.10;1.83;;;13.60;90.30;;;;;;4987883;28;20054;-81
2022/07/26 07:25:57;;;;;;;4.47;1.20;;;13.50;90.70;;;;;;4990424;28;20494;-83
2022/07/26 07:28:37;;;;;;;3.00;1.15;;;13.40;89.20;;;;;;4987697;28;20108;-86
2022/07/26 07:31:13;;;;;;;4.35;3.42;;;13.50;88.70;;;;;;4991444;28;20370;-85
2022/07/26 07:33:40;;;;;;;3.05;1.77;;;13.40;89.40;;;;;;4990454;28;20037;-87
2022/07/26 07:39:33;;;;;;;3.13;1.90;;;13.40;90.20;;;;;;4985307;28;20114;-85
2022/07/26 07:42:03;;;;;;;2.10;0.88;;;13.30;90.60;;;;;;4990688;28;20014;-85
2022/07/26 07:44:33;;;;;;;2.60;1.25;;;13.30;90.50;;;;;;4986036;28;20026;-78
2022/07/26 07:47:01;;;;;;;1.85;1.00;;;13.20;90.60;;;;;;4987398;28;20034;-79
2022/07/26 07:49:28;;;;;;;2.90;1.35;;;13.10;90.70;;;;;;4984557;28;20025;-84
2022/07/26 07:51:56;;;;;;;5.28;4.22;;;13.10;90.50;;;;;;4989292;28;20050;-86
2022/07/26 07:54:29;;;;;;;4.78;1.30;;;13.20;90.60;;;;;;4992439;28;20034;-87
2022/07/26 07:57:01;;;;;;;5.07;2.95;;;13.10;90.40;;;;;;4981880;28;20549;-86
2022/07/26 07:59:43;;;;;;;2.38;1.05;;;13.10;90.60;;;;;;4988606;28;20021;-84
2022/07/26 08:02:14;;;;;;;2.78;1.85;;;13.10;90.30;;;;;;4981637;28;20053;-83
2022/07/26 08:04:42;;;;;;;4.53;1.60;;;13.10;90.10;;;;;;4973640;28;20068;-81
2022/07/26 08:07:09;;;;;;;1.83;0.90;;;13.10;90.10;;;;;;4990915;28;20026;-81
2022/07/26 08:09:40;;;;;;;2.80;2.03;;;13.10;90.20;;;;;;4987953;28;20759;-83
2022/07/26 08:12:10;;;;;;;2.78;1.45;;;13.10;90.10;;;;;;4982431;28;20498;-87
2022/07/26 08:14:45;;;;;;;2.88;1.50;;;13.10;90.20;;;;;;4987594;28;20042;-78
2022/07/26 08:17:15;;;;;;;2.15;0.90;;;13.00;90.00;;;;;;4985177;28;20385;-80
2022/07/26 08:19:51;;;;;;;3.50;2.30;;;12.90;90.10;;;;;;4990941;28;20040;-83
2022/07/26 08:22:22;;;;;;;4.43;3.08;;;13.00;90.30;;;;;;4983482;28;20334;-79
2022/07/26 08:24:52;;;;;;;6.18;4.00;;;13.00;90.30;;;;;;4990740;22;20014;-80
2022/07/26 08:27:19;;;;;;;3.17;1.40;;;12.90;90.40;;;;;;5001286;28;20108;-83
2022/07/26 08:29:53;;;;;;;4.20;2.88;;;12.90;90.30;;;;;;4999715;28;20033;-85
2022/07/26 08:32:23;;;;;;;6.75;4.50;;;12.90;90.50;;;;;;5000244;28;20033;-86
2022/07/26 08:35:10;;;;;;;2.53;1.23;;;12.90;90.50;;;;;;4998849;28;20067;-83
2022/07/26 08:37:46;;;;;;;2.58;0.90;;;12.90;90.60;;;;;;4992703;28;20049;-81
2022/07/26 08:40:17;;;;;;;1.70;1.10;;;12.90;90.20;;;;;;4980652;28;20065;-83
2022/07/26 08:42:53;;;;;;;3.42;1.13;;;12.90;90.40;;;;;;4978073;28;20063;-83
2022/07/26 08:48:27;;;;;;;1.95;1.10;;;12.90;90.40;;;;;;4980475;28;20802;-83
2022/07/26 08:51:00;;;;;;;3.38;1.20;;;12.90;90.30;;;;;;4979261;28;20467;-82
2022/07/26 08:53:29;;;;;;;;;;;12.90;90.40;;;;;;4967678;28;20106;-81
2022/07/26 08:56:08;;;;;;;3.78;1.40;;;12.90;90.30;;;;;;4961186;28;19925;-82
2022/07/26 08:58:39;;;;;;;1.02;0.70;;;12.90;90.30;;;;;;4977767;28;20030;-82
2022/07/26 09:01:16;;;;;;;5.55;2.25;;;12.90;90.40;;;;;;4979839;28;20399;-82
2022/07/26 09:04:22;;;;;;;3.05;1.80;;;12.90;90.50;;;;;;4977317;28;20038;-81
2022/07/26 09:07:10;;;;;;;3.17;0.90;;;12.80;90.60;;;;;;4902107;29;20572;-80
2022/07/26 09:10:37;;;;;;;4.60;2.80;;;12.80;90.60;;;;;;4903429;29;20076;-80
2022/07/26 09:18:02;;;;;;;2.40;1.10;;;12.80;90.70;;;;;;5197627;22;20024;-81
2022/07/26 09:20:31;;;;;;;3.70;1.10;;;12.80;91.10;;;;;;5017890;28;20032;-82
2022/07/26 09:23:40;;;;;;;2.10;1.00;;;12.70;91.00;;;;;;5018031;28;20034;-85
2022/07/26 09:26:16;;;;;;;2.10;1.00;;;12.70;90.70;;;;;;4969805;28;20106;-81
2022/07/26 09:28:43;;;;;;;2.58;0.90;;;12.70;91.00;;;;;;5015589;28;20091;-81
2022/07/26 09:31:23;;;;;;;2.58;1.13;;;12.80;91.00;;;;;;5012417;28;20635;-81
2022/07/26 09:33:54;;;;;;;3.08;1.30;;;12.70;90.90;;;;;;5000629;28;20022;-87
2022/07/26 09:36:21;;;;;;;3.17;1.20;;;12.70;91.10;;;;;;5014134;28;20046;-83
2022/07/26 09:38:57;;;;;;;1.92;0.80;;;12.60;91.10;;;;;;4997765;28;20441;-78
2022/07/26 09:41:39;;;;;;;2.30;1.50;;;12.50;91.30;;;;;;4992799;28;20046;-80
2022/07/26 09:44:26;;;;;;;9.55;4.88;;;12.50;91.50;;;;;;5015458;28;20036;-80
2022/07/26 09:46:59;;;;;;;7.05;3.97;;;12.40;91.50;;;;;;5017748;28;20029;-81
2022/07/26 09:49:29;;;;;;;3.15;1.35;;;12.50;91.60;;;;;;5019231;28;20058;-77
2022/07/26 09:51:57;;;;;;;5.35;2.08;;;12.50;91.70;;;;;;5009669;28;20026;-79
2022/07/26 09:54:34;;;;;;;3.72;2.47;;;12.60;91.80;;;;;;4999171;28;20029;-75
2022/07/26 09:57:05;;;;;;;3.60;1.63;;;12.60;91.80;;;;;;4998041;28;20069;-74
2022/07/26 09:59:35;;;;;;;3.78;0.90;;;12.60;91.60;;;;;;4999564;28;20433;-81
2022/07/26 10:02:03;;;;;;;2.80;1.10;;;12.60;91.90;;;;;;5002628;28;20029;-75
2022/07/26 10:04:30;;;;;;;4.18;1.40;;;12.70;92.00;;;;;;5019249;28;20112;-74
2022/07/26 10:06:57;;;;;;;3.50;1.42;;;12.60;92.20;;;;;;5018731;28;20041;-73
2022/07/26 10:09:30;;;;;;;2.42;1.38;;;12.70;91.80;;;;;;5018688;28;20397;-72
2022/07/26 10:12:05;;;;;;;2.38;1.17;;;12.70;92.00;;;;;;5011717;28;20026;-75
2022/07/26 10:14:51;;;;;;;5.20;1.55;;;12.70;91.70;;;;;;4998890;28;20045;-75
2022/07/26 10:17:38;;;;;;;5.30;3.38;;;12.70;91.90;;;;;;5004191;28;20125;-83
2022/07/26 10:20:08;;;;;;;2.63;1.90;;;12.70;91.90;;;;;;4998014;28;20057;-81
2022/07/26 10:22:49;;;;;;;3.60;2.25;;;12.70;91.90;;;;;;5000090;28;20043;-81
2022/07/26 10:25:19;;;;;;;2.25;1.27;;;12.70;92.10;;;;;;4979236;28;20110;-72
2022/07/26 10:27:57;;;;;;;3.55;1.67;;;12.70;91.80;;;;;;4979779;28;20384;-73
2022/07/26 10:30:26;;;;;;;2.22;0.85;;;12.70;91.80;;;;;;4960910;28;20041;-79
2022/07/26 10:33:12;;;;;;;1.55;0.70;;;12.70;91.90;;;;;;4999901;28;20285;-75
2022/07/26 10:35:46;;;;;;;2.50;1.45;;;12.70;92.10;;;;;;5019026;28;20121;-76
2022/07/26 10:38:25;;;;;;;2.53;1.42;;;12.60;92.10;;;;;;5017661;28;20029;-74
2022/07/26 10:41:09;;;;;;;2.13;1.00;;;12.70;92.00;;;;;;5018524;28;20049;-73
2022/07/26 10:43:36;;;;;;;3.03;1.65;;;12.60;92.20;;;;;;5002258;28;20495;-71
2022/07/26 10:46:18;;;;;;;2.60;1.35;;;12.60;92.40;;;;;;4980665;28;20037;-77
2022/07/26 10:49:13;;;;;;;1.92;1.65;;;12.60;92.30;;;;;;4998920;28;20138;-78
2022/07/26 10:51:41;;;;;;;1.40;0.90;;;12.60;92.50;;;;;;4998717;28;20613;-74
2022/07/26 10:54:10;;;;;;;2.97;1.10;;;12.60;92.60;;;;;;5017509;28;20026;-78
2022/07/26 10:56:38;;;;;;;1.98;1.10;;;12.50;92.70;;;;;;5019440;28;20037;-73
2022/07/26 10:59:06;;;;;;;1.30;0.85;;;12.50;92.80;;;;;;5021766;28;20471;-77
2022/07/26 11:01:39;;;;;;;2.03;1.58;;;12.50;92.70;;;;;;5009646;28;20053;-69
2022/07/26 11:04:21;;;;;;;2.92;1.13;;;12.50;92.90;;;;;;5000054;28;20033;-79
2022/07/26 11:06:48;;;;;;;5.30;1.50;;;12.50;92.90;;;;;;4994328;28;20031;-78
2022/07/26 11:09:18;;;;;;;3.88;2.38;;;12.40;92.90;;;;;;4998762;28;20237;-71
2022/07/26 11:11:51;;;;;;;4.28;1.30;;;12.40;93.10;;;;;;5000915;28;20025;-73
2022/07/26 11:14:18;;;;;;;2.05;0.90;;;12.30;93.30;;;;;;5003843;28;20913;-81
2022/07/26 11:16:48;;;;;;;1.92;1.17;;;12.30;93.50;;;;;;5021643;28;20042;-73
2022/07/26 11:19:18;;;;;;;1.50;0.85;;;12.30;93.50;;;;;;5020404;28;20049;-74
2022/07/26 11:21:55;;;;;;;2.33;1.10;;;12.20;93.40;;;;;;5002809;28;20033;-79
2022/07/26 11:24:23;;;;;;;1.85;1.25;;;12.20;93.50;;;;;;5000631;28;20435;-77
2022/07/26 11:26:51;;;;;;;1.65;1.00;;;12.20;93.30;;;;;;5001010;28;20026;-79
2022/07/26 11:29:29;;;;;;;1.42;0.70;;;12.20;93.50;;;;;;4999452;28;20186;-77
2022/07/26 11:31:57;;;;;;;2.95;1.35;;;12.20;93.60;;;;;;4993867;28;20058;-81
2022/07/26 11:34:27;;;;;;;1.48;1.05;;;12.10;93.80;;;;;;5000163;28;20097;-78
2022/07/26 11:36:59;;;;;;;4.15;0.98;;;12.00;93.90;;;;;;5000304;28;20112;-78
2022/07/26 11:39:31;;;;;;;5.65;1.40;;;12.10;93.80;;;;;;4981816;28;20394;-76
2022/07/26 11:42:01;;;;;;;2.80;1.55;;;12.00;93.90;;;;;;5000655;28;20022;-76
2022/07/26 11:44:30;;;;;;;3.33;1.35;;;12.00;94.10;;;;;;4997986;28;20029;-80
2022/07/26 11:46:57;;;;;;;4.47;2.30;;;12.00;94.20;;;;;;4997742;28;20052;-73
2022/07/26 11:49:27;;;;;;;5.00;2.22;;;12.00;93.90;;;;;;4999491;28;20021;-81
2022/07/26 11:51:59;;;;;;;2.97;1.38;;;12.00;94.10;;;;;;5002325;28;20057;-78
2022/07/26 11:54:42;;;;;;;2.63;0.90;;;11.90;94.00;;;;;;4998764;28;20026;-77
2022/07/26 11:57:10;;;;;;;3.28;1.02;;;11.90;94.20;;;;;;4999963;28;20430;-77
2022/07/26 11:59:38;;;;;;;2.80;0.98;;;11.90;94.10;;;;;;5020914;28;20025;-79
2022/07/26 12:02:07;;;;;;;1.67;0.88;;;11.90;94.30;;;;;;5012051;28;20081;-78
2022/07/26 12:04:38;;;;;;;1.85;1.02;;;11.90;94.30;;;;;;5001450;28;20068;-73
2022/07/26 12:07:14;;;;;;;1.98;0.80;;;11.80;94.30;;;;;;5000752;28;20033;-74
2022/07/26 12:09:49;;;;;;;2.92;0.85;;;11.70;94.10;;;;;;5000487;28;20120;-73
2022/07/26 12:12:22;;;;;;;2.17;0.80;;;11.70;94.30;;;;;;5003705;28;20104;-73
2022/07/26 12:15:06;;;;;;;1.50;0.90;;;11.70;94.30;;;;;;5000894;28;20438;-80
2022/07/26 12:17:34;;;;;;;1.95;0.73;;;11.60;94.10;;;;;;5001145;28;20026;-80
2022/07/26 12:20:16;;;;;;;6.95;0.80;;;11.70;94.00;;;;;;5000525;28;20698;-80
2022/07/26 12:23:04;;;;;;;1.60;1.05;;;11.70;93.80;;;;;;4997685;28;20028;-81
2022/07/26 12:25:34;;;;;;;2.22;0.95;;;11.70;93.70;;;;;;5020215;28;20831;-74
2022/07/26 12:28:02;;;;;;;1.50;0.80;;;11.70;93.70;;;;;;5004500;28;20030;-73
2022/07/26 12:30:35;;;;;;;3.67;1.25;;;11.80;93.80;;;;;;4998685;28;20032;-71
2022/07/26 12:33:02;;;;;;;1.58;0.90;;;11.70;93.80;;;;;;5010438;28;20031;-76
2022/07/26 12:35:34;;;;;;;2.60;1.30;;;11.70;93.70;;;;;;5018059;28;20030;-74
2022/07/26 12:38:01;;;;;;;1.92;0.70;;;11.70;93.70;;;;;;5019628;28;20044;-70
2022/07/26 12:40:31;;;;;;;0.98;0.70;;;11.70;93.90;;;;;;5018551;28;20025;-71
2022/07/26 12:43:01;;;;;;;1.50;0.70;;;11.70;93.80;;;;;;5009699;28;20026;-76
2022/07/26 12:45:30;;;;;;;1.63;0.90;;;11.70;93.80;;;;;;5005269;28;20413;-71
2022/07/26 12:47:58;;;;;;;1.45;0.82;;;11.70;94.10;;;;;;5020165;28;20033;-71
2022/07/26 12:50:28;;;;;;;0.77;0.73;;;11.60;94.00;;;;;;5018741;28;20017;-72
2022/07/26 12:53:04;;;;;;;2.17;0.60;;;11.60;94.00;;;;;;5010276;28;20014;-71
2022/07/26 12:55:32;;;;;;;2.45;0.80;;;11.50;94.20;;;;;;4998462;28;20104;-71
2022/07/26 12:57:59;;;;;;;3.78;0.88;;;11.60;94.20;;;;;;5000073;28;20030;-72
2022/07/26 13:00:27;;;;;;;2.35;1.10;;;11.50;94.30;;;;;;4998798;28;20022;-71
2022/07/26 13:02:54;;;;;;;1.02;0.70;;;11.50;94.40;;;;;;5008813;28;20024;-71
2022/07/26 13:05:22;;;;;;;1.20;0.70;;;11.40;94.40;;;;;;5020189;28;20029;-71
2022/07/26 13:07:53;;;;;;;3.35;0.95;;;11.40;94.40;;;;;;5017048;28;20208;-73
2022/07/26 13:10:22;;;;;;;1.48;0.68;;;11.40;94.50;;;;;;5020338;28;20490;-71
2022/07/26 13:12:49;;;;;;;1.15;0.70;;;11.40;94.50;;;;;;4991432;28;20128;-76
2022/07/26 13:15:17;;;;;;;1.73;0.90;;;11.30;94.50;;;;;;5019804;28;20474;-78
2022/07/26 13:17:44;;;;;;;1.60;0.70;;;11.30;94.70;;;;;;5018458;28;20037;-81
2022/07/26 13:20:11;;;;;;;2.17;0.80;;;11.30;94.70;;;;;;5019283;28;20120;-79
2022/07/26 13:22:38;;;;;;;1.63;0.80;;;11.30;94.50;;;;;;4991324;28;20112;-74
2022/07/26 13:25:06;;;;;;;1.67;0.80;;;11.30;94.60;;;;;;5019094;28;20018;-74